sensor_id;sensor_type;location;lat;lon;timestamp;P1;durP1;ratioP1;P2;durP2;ratioP2
10605;SDS011;5350;42.698;23.148;2023-05-07T00:01:29;12.43;;;7.00;;
10605;SDS011;5350;42.698;23.148;2023-05-07T00:03:56;12.80;;;6.50;;
10605;SDS011;5350;42.698;23.148;2023-05-07T00:06:23;6.73;;;5.43;;
10605;SDS011;5350;42.698;23.148;2023-05-07T00:08:51;9.33;;;6.37;;
10605;SDS011;5350;42.698;23.148;2023-05-07T00:11:17;5.43;;;4.90;;
10605;SDS011;5350;42.698;23.148;2023-05-07T00:13:44;7.87;;;5.50;;
10605;SDS011;5350;42.698;23.148;2023-05-07T00:16:11;6.37;;;4.87;;
10605;SDS011;5350;42.698;23.148;2023-05-07T00:18:39;7.00;;;5.33;;
10605;SDS011;5350;42.698;23.148;2023-05-07T00:21:06;6.73;;;5.27;;
10605;SDS011;5350;42.698;23.148;2023-05-07T00:23:32;9.97;;;5.47;;
10605;SDS011;5350;42.698;23.148;2023-05-07T00:25:59;9.23;;;6.30;;
10605;SDS011;5350;42.698;23.148;2023-05-07T00:28:26;12.40;;;6.70;;
10605;SDS011;5350;42.698;23.148;2023-05-07T00:30:53;10.73;;;8.50;;
10605;SDS011;5350;42.698;23.148;2023-05-07T00:33:20;11.67;;;8.37;;
10605;SDS011;5350;42.698;23.148;2023-05-07T00:35:48;10.87;;;8.00;;
10605;SDS011;5350;42.698;23.148;2023-05-07T00:38:15;7.53;;;6.70;;
10605;SDS011;5350;42.698;23.148;2023-05-07T00:40:42;9.50;;;6.43;;
10605;SDS011;5350;42.698;23.148;2023-05-07T00:43:08;7.97;;;6.67;;
10605;SDS011;5350;42.698;23.148;2023-05-07T00:45:35;6.73;;;5.77;;
10605;SDS011;5350;42.698;23.148;2023-05-07T00:48:02;8.17;;;6.27;;
10605;SDS011;5350;42.698;23.148;2023-05-07T00:50:30;6.40;;;5.73;;
10605;SDS011;5350;42.698;23.148;2023-05-07T00:52:59;7.00;;;5.73;;
10605;SDS011;5350;42.698;23.148;2023-05-07T00:55:27;6.13;;;5.53;;
10605;SDS011;5350;42.698;23.148;2023-05-07T00:57:54;5.37;;;4.87;;
10605;SDS011;5350;42.698;23.148;2023-05-07T01:00:21;6.80;;;5.10;;
10605;SDS011;5350;42.698;23.148;2023-05-07T01:02:49;5.43;;;4.77;;
10605;SDS011;5350;42.698;23.148;2023-05-07T01:05:17;6.50;;;4.83;;
10605;SDS011;5350;42.698;23.148;2023-05-07T01:07:46;4.60;;;4.20;;
10605;SDS011;5350;42.698;23.148;2023-05-07T01:10:16;7.63;;;4.83;;
10605;SDS011;5350;42.698;23.148;2023-05-07T01:12:44;7.07;;;4.40;;
10605;SDS011;5350;42.698;23.148;2023-05-07T01:15:12;5.50;;;4.30;;
10605;SDS011;5350;42.698;23.148;2023-05-07T01:17:39;5.60;;;4.80;;
10605;SDS011;5350;42.698;23.148;2023-05-07T01:20:08;5.67;;;4.60;;
10605;SDS011;5350;42.698;23.148;2023-05-07T01:22:37;5.50;;;4.90;;
10605;SDS011;5350;42.698;23.148;2023-05-07T01:25:05;6.03;;;5.07;;
10605;SDS011;5350;42.698;23.148;2023-05-07T01:27:33;5.97;;;5.10;;
10605;SDS011;5350;42.698;23.148;2023-05-07T01:30:00;6.93;;;5.10;;
10605;SDS011;5350;42.698;23.148;2023-05-07T01:32:29;7.50;;;5.30;;
10605;SDS011;5350;42.698;23.148;2023-05-07T01:35:01;6.80;;;4.80;;
10605;SDS011;5350;42.698;23.148;2023-05-07T01:37:31;9.70;;;5.30;;
10605;SDS011;5350;42.698;23.148;2023-05-07T01:40:00;7.40;;;5.23;;
10605;SDS011;5350;42.698;23.148;2023-05-07T01:42:27;6.97;;;5.13;;
10605;SDS011;5350;42.698;23.148;2023-05-07T01:44:55;4.93;;;4.50;;
10605;SDS011;5350;42.698;23.148;2023-05-07T01:47:22;6.73;;;5.30;;
10605;SDS011;5350;42.698;23.148;2023-05-07T01:49:49;8.13;;;6.30;;
10605;SDS011;5350;42.698;23.148;2023-05-07T01:52:16;10.37;;;9.47;;
10605;SDS011;5350;42.698;23.148;2023-05-07T01:54:43;18.83;;;17.13;;
10605;SDS011;5350;42.698;23.148;2023-05-07T01:57:11;10.20;;;6.33;;
10605;SDS011;5350;42.698;23.148;2023-05-07T01:59:38;7.33;;;6.43;;
10605;SDS011;5350;42.698;23.148;2023-05-07T02:02:05;6.50;;;5.90;;
10605;SDS011;5350;42.698;23.148;2023-05-07T02:04:32;6.73;;;6.10;;
10605;SDS011;5350;42.698;23.148;2023-05-07T02:06:58;7.80;;;7.00;;
10605;SDS011;5350;42.698;23.148;2023-05-07T02:09:25;7.73;;;6.07;;
10605;SDS011;5350;42.698;23.148;2023-05-07T02:11:52;6.77;;;6.20;;
10605;SDS011;5350;42.698;23.148;2023-05-07T02:14:20;7.47;;;6.27;;
10605;SDS011;5350;42.698;23.148;2023-05-07T02:16:46;6.40;;;5.80;;
10605;SDS011;5350;42.698;23.148;2023-05-07T02:19:13;9.87;;;6.33;;
10605;SDS011;5350;42.698;23.148;2023-05-07T02:21:40;8.03;;;5.73;;
10605;SDS011;5350;42.698;23.148;2023-05-07T02:24:07;8.23;;;6.67;;
10605;SDS011;5350;42.698;23.148;2023-05-07T02:26:33;7.53;;;6.83;;
10605;SDS011;5350;42.698;23.148;2023-05-07T02:29:00;7.73;;;6.33;;
10605;SDS011;5350;42.698;23.148;2023-05-07T02:31:28;8.87;;;6.97;;
10605;SDS011;5350;42.698;23.148;2023-05-07T02:33:55;10.27;;;7.30;;
10605;SDS011;5350;42.698;23.148;2023-05-07T02:36:22;7.17;;;6.47;;
10605;SDS011;5350;42.698;23.148;2023-05-07T02:38:48;9.80;;;6.83;;
10605;SDS011;5350;42.698;23.148;2023-05-07T02:41:15;9.83;;;7.97;;
10605;SDS011;5350;42.698;23.148;2023-05-07T02:43:42;11.30;;;8.20;;
10605;SDS011;5350;42.698;23.148;2023-05-07T02:46:08;10.17;;;8.13;;
10605;SDS011;5350;42.698;23.148;2023-05-07T02:48:37;8.80;;;7.10;;
10605;SDS011;5350;42.698;23.148;2023-05-07T02:51:04;8.87;;;7.40;;
10605;SDS011;5350;42.698;23.148;2023-05-07T02:53:31;7.43;;;6.70;;
10605;SDS011;5350;42.698;23.148;2023-05-07T02:55:59;7.87;;;6.67;;
10605;SDS011;5350;42.698;23.148;2023-05-07T02:58:27;8.53;;;6.10;;
10605;SDS011;5350;42.698;23.148;2023-05-07T03:00:54;8.37;;;7.17;;
10605;SDS011;5350;42.698;23.148;2023-05-07T03:03:21;11.07;;;7.43;;
10605;SDS011;5350;42.698;23.148;2023-05-07T03:05:49;11.27;;;7.90;;
10605;SDS011;5350;42.698;23.148;2023-05-07T03:08:16;11.57;;;7.57;;
10605;SDS011;5350;42.698;23.148;2023-05-07T03:10:43;10.63;;;7.87;;
10605;SDS011;5350;42.698;23.148;2023-05-07T03:13:10;13.03;;;7.70;;
10605;SDS011;5350;42.698;23.148;2023-05-07T03:15:36;9.37;;;7.57;;
10605;SDS011;5350;42.698;23.148;2023-05-07T03:18:03;9.80;;;8.30;;
10605;SDS011;5350;42.698;23.148;2023-05-07T03:20:30;9.77;;;8.50;;
10605;SDS011;5350;42.698;23.148;2023-05-07T03:22:58;9.73;;;7.50;;
10605;SDS011;5350;42.698;23.148;2023-05-07T03:25:25;9.73;;;8.27;;
10605;SDS011;5350;42.698;23.148;2023-05-07T03:27:51;12.70;;;8.57;;
10605;SDS011;5350;42.698;23.148;2023-05-07T03:30:18;10.97;;;8.23;;
10605;SDS011;5350;42.698;23.148;2023-05-07T03:32:45;11.90;;;8.03;;
10605;SDS011;5350;42.698;23.148;2023-05-07T03:35:12;11.63;;;7.93;;
10605;SDS011;5350;42.698;23.148;2023-05-07T03:37:38;10.50;;;8.13;;
10605;SDS011;5350;42.698;23.148;2023-05-07T03:40:08;9.93;;;8.33;;
10605;SDS011;5350;42.698;23.148;2023-05-07T03:42:37;11.27;;;10.13;;
10605;SDS011;5350;42.698;23.148;2023-05-07T03:45:04;11.57;;;9.53;;
10605;SDS011;5350;42.698;23.148;2023-05-07T03:47:31;11.83;;;9.40;;
10605;SDS011;5350;42.698;23.148;2023-05-07T03:49:58;9.80;;;8.47;;
10605;SDS011;5350;42.698;23.148;2023-05-07T03:52:24;11.27;;;9.40;;
10605;SDS011;5350;42.698;23.148;2023-05-07T03:54:52;10.23;;;9.00;;
10605;SDS011;5350;42.698;23.148;2023-05-07T03:57:20;11.87;;;9.20;;
10605;SDS011;5350;42.698;23.148;2023-05-07T03:59:47;10.50;;;9.03;;
10605;SDS011;5350;42.698;23.148;2023-05-07T04:02:13;10.63;;;9.20;;
10605;SDS011;5350;42.698;23.148;2023-05-07T04:04:40;12.37;;;9.10;;
10605;SDS011;5350;42.698;23.148;2023-05-07T04:07:07;11.40;;;9.07;;
10605;SDS011;5350;42.698;23.148;2023-05-07T04:09:34;11.20;;;9.30;;
10605;SDS011;5350;42.698;23.148;2023-05-07T04:12:00;11.40;;;9.50;;
10605;SDS011;5350;42.698;23.148;2023-05-07T04:14:28;12.20;;;10.13;;
10605;SDS011;5350;42.698;23.148;2023-05-07T04:16:57;10.70;;;9.60;;
10605;SDS011;5350;42.698;23.148;2023-05-07T04:19:24;10.87;;;9.33;;
10605;SDS011;5350;42.698;23.148;2023-05-07T04:21:50;10.43;;;8.90;;
10605;SDS011;5350;42.698;23.148;2023-05-07T04:24:17;10.67;;;9.57;;
10605;SDS011;5350;42.698;23.148;2023-05-07T04:26:44;10.80;;;9.43;;
10605;SDS011;5350;42.698;23.148;2023-05-07T04:29:11;10.47;;;9.00;;
10605;SDS011;5350;42.698;23.148;2023-05-07T04:31:39;11.10;;;8.80;;
10605;SDS011;5350;42.698;23.148;2023-05-07T04:34:05;9.23;;;8.23;;
10605;SDS011;5350;42.698;23.148;2023-05-07T04:36:32;10.50;;;8.97;;
10605;SDS011;5350;42.698;23.148;2023-05-07T04:38:59;11.50;;;8.70;;
10605;SDS011;5350;42.698;23.148;2023-05-07T04:41:26;9.87;;;8.77;;
10605;SDS011;5350;42.698;23.148;2023-05-07T04:43:52;10.50;;;9.17;;
10605;SDS011;5350;42.698;23.148;2023-05-07T04:46:19;10.43;;;9.33;;
10605;SDS011;5350;42.698;23.148;2023-05-07T04:48:47;11.83;;;9.23;;
10605;SDS011;5350;42.698;23.148;2023-05-07T04:51:14;11.60;;;8.57;;
10605;SDS011;5350;42.698;23.148;2023-05-07T04:53:41;9.67;;;8.67;;
10605;SDS011;5350;42.698;23.148;2023-05-07T04:56:08;10.33;;;9.10;;
10605;SDS011;5350;42.698;23.148;2023-05-07T04:58:34;11.87;;;8.83;;
10605;SDS011;5350;42.698;23.148;2023-05-07T05:01:01;8.97;;;8.07;;
10605;SDS011;5350;42.698;23.148;2023-05-07T05:03:28;9.83;;;8.93;;
10605;SDS011;5350;42.698;23.148;2023-05-07T05:05:56;9.97;;;8.97;;
10605;SDS011;5350;42.698;23.148;2023-05-07T05:08:24;11.80;;;9.23;;
10605;SDS011;5350;42.698;23.148;2023-05-07T05:10:51;10.10;;;8.87;;
10605;SDS011;5350;42.698;23.148;2023-05-07T05:13:18;10.67;;;9.40;;
10605;SDS011;5350;42.698;23.148;2023-05-07T05:15:45;11.47;;;9.00;;
10605;SDS011;5350;42.698;23.148;2023-05-07T05:18:12;9.03;;;8.13;;
10605;SDS011;5350;42.698;23.148;2023-05-07T05:20:38;12.00;;;8.77;;
10605;SDS011;5350;42.698;23.148;2023-05-07T05:23:07;9.73;;;8.73;;
10605;SDS011;5350;42.698;23.148;2023-05-07T05:25:34;12.83;;;9.87;;
10605;SDS011;5350;42.698;23.148;2023-05-07T05:28:01;9.77;;;8.77;;
10605;SDS011;5350;42.698;23.148;2023-05-07T05:30:27;12.53;;;9.63;;
10605;SDS011;5350;42.698;23.148;2023-05-07T05:32:54;10.67;;;8.67;;
10605;SDS011;5350;42.698;23.148;2023-05-07T05:35:21;11.17;;;9.23;;
10605;SDS011;5350;42.698;23.148;2023-05-07T05:37:47;10.97;;;8.53;;
10605;SDS011;5350;42.698;23.148;2023-05-07T05:40:16;9.83;;;8.80;;
10605;SDS011;5350;42.698;23.148;2023-05-07T05:42:42;11.57;;;9.37;;
10605;SDS011;5350;42.698;23.148;2023-05-07T05:45:09;11.27;;;9.00;;
10605;SDS011;5350;42.698;23.148;2023-05-07T05:47:37;9.40;;;8.40;;
10605;SDS011;5350;42.698;23.148;2023-05-07T05:50:04;12.43;;;8.43;;
10605;SDS011;5350;42.698;23.148;2023-05-07T05:52:32;10.37;;;8.53;;
10605;SDS011;5350;42.698;23.148;2023-05-07T05:54:59;10.57;;;9.47;;
10605;SDS011;5350;42.698;23.148;2023-05-07T05:57:27;11.87;;;8.90;;
10605;SDS011;5350;42.698;23.148;2023-05-07T05:59:53;12.37;;;9.63;;
10605;SDS011;5350;42.698;23.148;2023-05-07T06:02:20;9.23;;;8.13;;
10605;SDS011;5350;42.698;23.148;2023-05-07T06:04:47;9.50;;;8.33;;
10605;SDS011;5350;42.698;23.148;2023-05-07T06:07:14;8.97;;;8.03;;
10605;SDS011;5350;42.698;23.148;2023-05-07T06:09:40;9.10;;;8.00;;
10605;SDS011;5350;42.698;23.148;2023-05-07T06:12:07;9.43;;;7.90;;
10605;SDS011;5350;42.698;23.148;2023-05-07T06:14:35;10.83;;;8.23;;
10605;SDS011;5350;42.698;23.148;2023-05-07T06:17:02;8.75;;;7.95;;
10605;SDS011;5350;42.698;23.148;2023-05-07T06:19:28;9.90;;;7.32;;
10605;SDS011;5350;42.698;23.148;2023-05-07T06:21:56;8.93;;;8.02;;
10605;SDS011;5350;42.698;23.148;2023-05-07T06:24:22;8.57;;;7.68;;
10605;SDS011;5350;42.698;23.148;2023-05-07T06:26:50;10.82;;;8.05;;
10605;SDS011;5350;42.698;23.148;2023-05-07T06:29:16;9.90;;;8.07;;
10605;SDS011;5350;42.698;23.148;2023-05-07T06:31:44;9.20;;;7.30;;
10605;SDS011;5350;42.698;23.148;2023-05-07T06:34:11;8.93;;;7.22;;
10605;SDS011;5350;42.698;23.148;2023-05-07T06:36:40;10.02;;;7.25;;
10605;SDS011;5350;42.698;23.148;2023-05-07T06:39:06;7.80;;;7.03;;
10605;SDS011;5350;42.698;23.148;2023-05-07T06:41:33;7.75;;;6.68;;
10605;SDS011;5350;42.698;23.148;2023-05-07T06:44:00;8.00;;;6.50;;
10605;SDS011;5350;42.698;23.148;2023-05-07T06:46:27;7.72;;;6.93;;
10605;SDS011;5350;42.698;23.148;2023-05-07T06:48:56;8.35;;;6.60;;
10605;SDS011;5350;42.698;23.148;2023-05-07T06:51:23;8.38;;;6.47;;
10605;SDS011;5350;42.698;23.148;2023-05-07T06:53:49;8.55;;;6.22;;
10605;SDS011;5350;42.698;23.148;2023-05-07T06:56:16;7.47;;;6.38;;
10605;SDS011;5350;42.698;23.148;2023-05-07T06:58:43;8.55;;;5.97;;
10605;SDS011;5350;42.698;23.148;2023-05-07T07:01:09;6.93;;;6.22;;
10605;SDS011;5350;42.698;23.148;2023-05-07T07:03:36;6.65;;;5.95;;
10605;SDS011;5350;42.698;23.148;2023-05-07T07:06:04;8.10;;;6.40;;
10605;SDS011;5350;42.698;23.148;2023-05-07T07:08:31;7.65;;;5.95;;
10605;SDS011;5350;42.698;23.148;2023-05-07T07:10:59;10.02;;;6.50;;
10605;SDS011;5350;42.698;23.148;2023-05-07T07:13:26;7.50;;;6.80;;
10605;SDS011;5350;42.698;23.148;2023-05-07T07:15:54;7.10;;;6.40;;
10605;SDS011;5350;42.698;23.148;2023-05-07T07:18:20;8.77;;;6.25;;
10605;SDS011;5350;42.698;23.148;2023-05-07T07:20:47;10.10;;;6.32;;
10605;SDS011;5350;42.698;23.148;2023-05-07T07:23:15;8.77;;;6.18;;
10605;SDS011;5350;42.698;23.148;2023-05-07T07:25:42;9.32;;;5.90;;
10605;SDS011;5350;42.698;23.148;2023-05-07T07:28:08;36.63;;;20.52;;
10605;SDS011;5350;42.698;23.148;2023-05-07T07:30:35;7.72;;;5.68;;
10605;SDS011;5350;42.698;23.148;2023-05-07T07:33:02;7.88;;;5.63;;
10605;SDS011;5350;42.698;23.148;2023-05-07T07:35:30;5.75;;;5.25;;
10605;SDS011;5350;42.698;23.148;2023-05-07T07:37:57;6.40;;;5.80;;
10605;SDS011;5350;42.698;23.148;2023-05-07T07:40:25;7.20;;;6.22;;
10605;SDS011;5350;42.698;23.148;2023-05-07T07:42:52;6.28;;;5.13;;
10605;SDS011;5350;42.698;23.148;2023-05-07T07:45:19;9.70;;;5.60;;
10605;SDS011;5350;42.698;23.148;2023-05-07T07:47:46;6.07;;;5.57;;
10605;SDS011;5350;42.698;23.148;2023-05-07T07:50:13;7.70;;;5.20;;
10605;SDS011;5350;42.698;23.148;2023-05-07T07:52:39;5.50;;;4.93;;
10605;SDS011;5350;42.698;23.148;2023-05-07T07:55:07;6.25;;;5.03;;
10605;SDS011;5350;42.698;23.148;2023-05-07T07:57:36;5.97;;;5.35;;
10605;SDS011;5350;42.698;23.148;2023-05-07T08:00:03;7.93;;;4.78;;
10605;SDS011;5350;42.698;23.148;2023-05-07T08:02:32;5.50;;;5.00;;
10605;SDS011;5350;42.698;23.148;2023-05-07T08:04:58;5.35;;;4.85;;
10605;SDS011;5350;42.698;23.148;2023-05-07T08:07:25;7.10;;;5.28;;
10605;SDS011;5350;42.698;23.148;2023-05-07T08:09:52;7.25;;;4.50;;
10605;SDS011;5350;42.698;23.148;2023-05-07T08:12:18;6.75;;;4.63;;
10605;SDS011;5350;42.698;23.148;2023-05-07T08:14:47;6.07;;;5.05;;
10605;SDS011;5350;42.698;23.148;2023-05-07T08:17:13;5.97;;;4.47;;
10605;SDS011;5350;42.698;23.148;2023-05-07T08:19:41;5.88;;;5.10;;
10605;SDS011;5350;42.698;23.148;2023-05-07T08:22:07;7.18;;;4.35;;
10605;SDS011;5350;42.698;23.148;2023-05-07T08:24:34;4.85;;;4.43;;
10605;SDS011;5350;42.698;23.148;2023-05-07T08:27:01;5.18;;;4.35;;
10605;SDS011;5350;42.698;23.148;2023-05-07T08:29:27;4.30;;;3.90;;
10605;SDS011;5350;42.698;23.148;2023-05-07T08:31:55;5.38;;;4.20;;
10605;SDS011;5350;42.698;23.148;2023-05-07T08:34:22;4.88;;;4.38;;
10605;SDS011;5350;42.698;23.148;2023-05-07T08:36:49;5.03;;;4.50;;
10605;SDS011;5350;42.698;23.148;2023-05-07T08:39:15;6.22;;;4.60;;
10605;SDS011;5350;42.698;23.148;2023-05-07T08:41:43;5.10;;;4.70;;
10605;SDS011;5350;42.698;23.148;2023-05-07T08:44:12;7.80;;;4.35;;
10605;SDS011;5350;42.698;23.148;2023-05-07T08:46:41;8.43;;;4.82;;
10605;SDS011;5350;42.698;23.148;2023-05-07T08:49:09;6.07;;;4.10;;
10605;SDS011;5350;42.698;23.148;2023-05-07T08:51:36;4.10;;;3.67;;
10605;SDS011;5350;42.698;23.148;2023-05-07T08:54:04;6.50;;;4.00;;
10605;SDS011;5350;42.698;23.148;2023-05-07T08:56:32;10.25;;;4.30;;
10605;SDS011;5350;42.698;23.148;2023-05-07T08:58:59;4.93;;;3.95;;
10605;SDS011;5350;42.698;23.148;2023-05-07T09:01:25;5.00;;;3.92;;
10605;SDS011;5350;42.698;23.148;2023-05-07T09:03:52;6.40;;;4.38;;
10605;SDS011;5350;42.698;23.148;2023-05-07T09:06:21;4.53;;;4.13;;
10605;SDS011;5350;42.698;23.148;2023-05-07T09:08:51;4.82;;;3.80;;
10605;SDS011;5350;42.698;23.148;2023-05-07T09:11:22;5.75;;;4.10;;
10605;SDS011;5350;42.698;23.148;2023-05-07T09:13:49;4.78;;;3.65;;
10605;SDS011;5350;42.698;23.148;2023-05-07T09:16:20;4.10;;;3.72;;
10605;SDS011;5350;42.698;23.148;2023-05-07T09:18:48;3.55;;;3.25;;
10605;SDS011;5350;42.698;23.148;2023-05-07T09:21:17;4.55;;;3.50;;
10605;SDS011;5350;42.698;23.148;2023-05-07T09:23:46;3.60;;;3.20;;
10605;SDS011;5350;42.698;23.148;2023-05-07T09:26:14;3.63;;;3.33;;
10605;SDS011;5350;42.698;23.148;2023-05-07T09:28:41;4.40;;;3.58;;
10605;SDS011;5350;42.698;23.148;2023-05-07T09:31:08;7.05;;;3.67;;
10605;SDS011;5350;42.698;23.148;2023-05-07T09:33:35;3.83;;;3.20;;
10605;SDS011;5350;42.698;23.148;2023-05-07T09:36:03;4.75;;;2.97;;
10605;SDS011;5350;42.698;23.148;2023-05-07T09:38:30;5.57;;;3.42;;
10605;SDS011;5350;42.698;23.148;2023-05-07T09:41:08;3.60;;;3.30;;
10605;SDS011;5350;42.698;23.148;2023-05-07T09:43:36;4.18;;;3.00;;
10605;SDS011;5350;42.698;23.148;2023-05-07T09:46:06;3.75;;;3.05;;
10605;SDS011;5350;42.698;23.148;2023-05-07T09:48:35;3.80;;;3.08;;
10605;SDS011;5350;42.698;23.148;2023-05-07T09:51:05;3.63;;;3.10;;
10605;SDS011;5350;42.698;23.148;2023-05-07T09:53:37;7.25;;;3.20;;
10605;SDS011;5350;42.698;23.148;2023-05-07T09:56:07;2.97;;;2.75;;
10605;SDS011;5350;42.698;23.148;2023-05-07T09:58:34;6.15;;;3.08;;
10605;SDS011;5350;42.698;23.148;2023-05-07T10:01:03;3.33;;;3.03;;
10605;SDS011;5350;42.698;23.148;2023-05-07T10:03:31;4.47;;;3.35;;
10605;SDS011;5350;42.698;23.148;2023-05-07T10:06:01;4.07;;;2.83;;
10605;SDS011;5350;42.698;23.148;2023-05-07T10:08:29;4.50;;;2.80;;
10605;SDS011;5350;42.698;23.148;2023-05-07T10:10:56;3.13;;;2.88;;
10605;SDS011;5350;42.698;23.148;2023-05-07T10:13:24;3.08;;;2.80;;
10605;SDS011;5350;42.698;23.148;2023-05-07T10:15:51;3.92;;;2.70;;
10605;SDS011;5350;42.698;23.148;2023-05-07T10:18:19;2.40;;;2.20;;
10605;SDS011;5350;42.698;23.148;2023-05-07T10:20:48;5.57;;;2.83;;
10605;SDS011;5350;42.698;23.148;2023-05-07T10:23:19;2.97;;;2.65;;
10605;SDS011;5350;42.698;23.148;2023-05-07T10:25:50;3.15;;;2.75;;
10605;SDS011;5350;42.698;23.148;2023-05-07T10:28:17;6.03;;;2.90;;
10605;SDS011;5350;42.698;23.148;2023-05-07T10:30:50;3.20;;;2.78;;
10605;SDS011;5350;42.698;23.148;2023-05-07T10:33:26;2.70;;;2.50;;
10605;SDS011;5350;42.698;23.148;2023-05-07T10:35:55;3.70;;;2.70;;
10605;SDS011;5350;42.698;23.148;2023-05-07T10:38:26;3.83;;;2.92;;
10605;SDS011;5350;42.698;23.148;2023-05-07T10:40:53;2.78;;;2.50;;
10605;SDS011;5350;42.698;23.148;2023-05-07T10:43:20;2.58;;;2.20;;
10605;SDS011;5350;42.698;23.148;2023-05-07T10:51:37;2.55;;;2.35;;
10605;SDS011;5350;42.698;23.148;2023-05-07T10:54:23;3.97;;;2.13;;
10605;SDS011;5350;42.698;23.148;2023-05-07T10:56:49;2.70;;;2.50;;
10605;SDS011;5350;42.698;23.148;2023-05-07T10:59:35;3.35;;;2.35;;
10605;SDS011;5350;42.698;23.148;2023-05-07T11:02:12;4.40;;;2.47;;
10605;SDS011;5350;42.698;23.148;2023-05-07T11:04:40;4.63;;;2.60;;
10605;SDS011;5350;42.698;23.148;2023-05-07T11:07:25;4.95;;;2.63;;
10605;SDS011;5350;42.698;23.148;2023-05-07T11:09:54;3.25;;;2.33;;
10605;SDS011;5350;42.698;23.148;2023-05-07T11:15:33;3.15;;;2.28;;
10605;SDS011;5350;42.698;23.148;2023-05-07T11:18:03;2.75;;;2.50;;
10605;SDS011;5350;42.698;23.148;2023-05-07T11:26:21;4.90;;;2.40;;
10605;SDS011;5350;42.698;23.148;2023-05-07T11:28:48;2.72;;;2.45;;
10605;SDS011;5350;42.698;23.148;2023-05-07T11:31:17;3.05;;;2.38;;
10605;SDS011;5350;42.698;23.148;2023-05-07T11:33:49;2.88;;;2.08;;
10605;SDS011;5350;42.698;23.148;2023-05-07T11:36:16;4.43;;;1.95;;
10605;SDS011;5350;42.698;23.148;2023-05-07T11:38:44;1.98;;;1.88;;
10605;SDS011;5350;42.698;23.148;2023-05-07T11:41:10;3.17;;;2.35;;
10605;SDS011;5350;42.698;23.148;2023-05-07T11:43:37;2.40;;;2.20;;
10605;SDS011;5350;42.698;23.148;2023-05-07T11:46:05;2.72;;;2.00;;
10605;SDS011;5350;42.698;23.148;2023-05-07T11:48:34;3.65;;;2.20;;
10605;SDS011;5350;42.698;23.148;2023-05-07T11:51:03;2.22;;;1.90;;
10605;SDS011;5350;42.698;23.148;2023-05-07T11:53:37;3.47;;;2.10;;
10605;SDS011;5350;42.698;23.148;2023-05-07T11:56:06;2.55;;;2.08;;
10605;SDS011;5350;42.698;23.148;2023-05-07T11:58:33;4.70;;;2.50;;
10605;SDS011;5350;42.698;23.148;2023-05-07T12:01:00;2.30;;;2.10;;
10605;SDS011;5350;42.698;23.148;2023-05-07T12:03:27;2.38;;;2.05;;
10605;SDS011;5350;42.698;23.148;2023-05-07T12:05:54;4.18;;;2.53;;
10605;SDS011;5350;42.698;23.148;2023-05-07T12:08:22;2.45;;;2.35;;
10605;SDS011;5350;42.698;23.148;2023-05-07T12:10:49;6.75;;;2.10;;
10605;SDS011;5350;42.698;23.148;2023-05-07T12:13:16;2.65;;;2.33;;
10605;SDS011;5350;42.698;23.148;2023-05-07T12:15:43;2.55;;;2.20;;
10605;SDS011;5350;42.698;23.148;2023-05-07T12:18:10;1.98;;;1.80;;
10605;SDS011;5350;42.698;23.148;2023-05-07T12:20:38;2.03;;;1.83;;
10605;SDS011;5350;42.698;23.148;2023-05-07T12:23:05;3.50;;;2.08;;
10605;SDS011;5350;42.698;23.148;2023-05-07T12:25:33;2.03;;;1.83;;
10605;SDS011;5350;42.698;23.148;2023-05-07T12:28:01;5.40;;;2.22;;
10605;SDS011;5350;42.698;23.148;2023-05-07T12:30:28;3.95;;;2.03;;
10605;SDS011;5350;42.698;23.148;2023-05-07T12:32:55;2.45;;;2.10;;
10605;SDS011;5350;42.698;23.148;2023-05-07T12:35:28;2.10;;;1.90;;
10605;SDS011;5350;42.698;23.148;2023-05-07T12:37:55;2.00;;;1.85;;
10605;SDS011;5350;42.698;23.148;2023-05-07T12:40:24;2.30;;;2.10;;
10605;SDS011;5350;42.698;23.148;2023-05-07T12:42:53;2.60;;;2.00;;
10605;SDS011;5350;42.698;23.148;2023-05-07T12:45:21;4.47;;;1.88;;
10605;SDS011;5350;42.698;23.148;2023-05-07T12:47:47;6.45;;;1.90;;
10605;SDS011;5350;42.698;23.148;2023-05-07T12:50:14;4.18;;;2.08;;
10605;SDS011;5350;42.698;23.148;2023-05-07T12:52:42;2.25;;;2.15;;
10605;SDS011;5350;42.698;23.148;2023-05-07T12:55:11;2.03;;;1.92;;
10605;SDS011;5350;42.698;23.148;2023-05-07T12:57:39;2.72;;;1.90;;
10605;SDS011;5350;42.698;23.148;2023-05-07T13:00:09;2.35;;;1.95;;
10605;SDS011;5350;42.698;23.148;2023-05-07T13:02:37;2.85;;;2.10;;
10605;SDS011;5350;42.698;23.148;2023-05-07T13:05:04;3.50;;;2.15;;
10605;SDS011;5350;42.698;23.148;2023-05-07T13:07:32;3.45;;;1.80;;
10605;SDS011;5350;42.698;23.148;2023-05-07T13:09:58;4.07;;;2.15;;
10605;SDS011;5350;42.698;23.148;2023-05-07T13:12:25;3.35;;;2.30;;
10605;SDS011;5350;42.698;23.148;2023-05-07T13:14:52;2.42;;;2.20;;
10605;SDS011;5350;42.698;23.148;2023-05-07T13:17:20;3.92;;;2.17;;
10605;SDS011;5350;42.698;23.148;2023-05-07T13:19:47;6.63;;;2.60;;
10605;SDS011;5350;42.698;23.148;2023-05-07T13:22:13;2.63;;;2.42;;
10605;SDS011;5350;42.698;23.148;2023-05-07T13:24:40;5.93;;;2.67;;
10605;SDS011;5350;42.698;23.148;2023-05-07T13:27:08;4.30;;;2.25;;
10605;SDS011;5350;42.698;23.148;2023-05-07T13:29:35;4.25;;;2.97;;
10605;SDS011;5350;42.698;23.148;2023-05-07T13:32:02;4.32;;;3.78;;
10605;SDS011;5350;42.698;23.148;2023-05-07T13:34:30;2.17;;;2.08;;
10605;SDS011;5350;42.698;23.148;2023-05-07T13:36:57;4.47;;;2.20;;
10605;SDS011;5350;42.698;23.148;2023-05-07T13:39:23;6.78;;;2.47;;
10605;SDS011;5350;42.698;23.148;2023-05-07T13:41:50;1.92;;;1.80;;
10605;SDS011;5350;42.698;23.148;2023-05-07T13:44:17;2.08;;;1.88;;
10605;SDS011;5350;42.698;23.148;2023-05-07T13:46:43;2.03;;;1.85;;
10605;SDS011;5350;42.698;23.148;2023-05-07T13:49:10;1.83;;;1.70;;
10605;SDS011;5350;42.698;23.148;2023-05-07T13:51:39;3.78;;;2.17;;
10605;SDS011;5350;42.698;23.148;2023-05-07T13:54:06;2.42;;;2.28;;
10605;SDS011;5350;42.698;23.148;2023-05-07T13:56:32;5.53;;;2.40;;
10605;SDS011;5350;42.698;23.148;2023-05-07T13:58:59;3.58;;;2.17;;
10605;SDS011;5350;42.698;23.148;2023-05-07T14:01:26;2.30;;;2.05;;
10605;SDS011;5350;42.698;23.148;2023-05-07T14:03:53;2.78;;;1.75;;
10605;SDS011;5350;42.698;23.148;2023-05-07T14:06:19;3.55;;;2.00;;
10605;SDS011;5350;42.698;23.148;2023-05-07T14:08:48;3.22;;;2.17;;
10605;SDS011;5350;42.698;23.148;2023-05-07T14:11:15;3.00;;;2.30;;
10605;SDS011;5350;42.698;23.148;2023-05-07T14:13:41;3.28;;;1.83;;
10605;SDS011;5350;42.698;23.148;2023-05-07T14:16:08;4.22;;;2.00;;
10605;SDS011;5350;42.698;23.148;2023-05-07T14:18:35;2.85;;;1.90;;
10605;SDS011;5350;42.698;23.148;2023-05-07T14:21:02;4.03;;;1.92;;
10605;SDS011;5350;42.698;23.148;2023-05-07T14:23:29;3.05;;;2.30;;
10605;SDS011;5350;42.698;23.148;2023-05-07T14:25:57;2.13;;;1.98;;
10605;SDS011;5350;42.698;23.148;2023-05-07T14:28:24;3.47;;;2.28;;
10605;SDS011;5350;42.698;23.148;2023-05-07T14:30:51;2.63;;;2.08;;
10605;SDS011;5350;42.698;23.148;2023-05-07T14:33:17;2.30;;;2.10;;
10605;SDS011;5350;42.698;23.148;2023-05-07T14:35:44;2.13;;;2.03;;
10605;SDS011;5350;42.698;23.148;2023-05-07T14:38:13;5.40;;;2.13;;
10605;SDS011;5350;42.698;23.148;2023-05-07T14:40:40;1.90;;;1.80;;
10605;SDS011;5350;42.698;23.148;2023-05-07T14:43:08;2.90;;;2.05;;
10605;SDS011;5350;42.698;23.148;2023-05-07T14:45:35;3.95;;;1.65;;
10605;SDS011;5350;42.698;23.148;2023-05-07T14:48:02;3.55;;;1.75;;
10605;SDS011;5350;42.698;23.148;2023-05-07T14:50:29;2.78;;;1.92;;
10605;SDS011;5350;42.698;23.148;2023-05-07T14:52:55;3.15;;;1.83;;
10605;SDS011;5350;42.698;23.148;2023-05-07T14:55:22;3.65;;;2.25;;
10605;SDS011;5350;42.698;23.148;2023-05-07T14:57:49;2.15;;;1.88;;
10605;SDS011;5350;42.698;23.148;2023-05-07T15:00:17;4.28;;;1.98;;
10605;SDS011;5350;42.698;23.148;2023-05-07T15:02:44;2.20;;;1.80;;